CTN7H LDPL-LDZA
Flight info
| Callsign | CTN7H |
|---|---|
| Flight time | 0h 53m |
| Altitude | 19000 |
| Route | RJK DCT KOTOR |
| Aircraft | A320/M-SDE2E3FGHIRWXY/LB1 |
Departure
| Time | 2026-05-05 19:31 |
|---|---|
| Airport | Pula Airport (LDPL) |
Arrival
| Time | 2026-05-05 20:24 |
|---|---|
| Airport | Zagreb Franjo Tuđman International Airport (LDZA) |
| Time | Latitude | Longitude | Altitude | Speed | Heading |
|---|---|---|---|---|---|
| 2026-05-05 19:22 | 44.89823 | 13.92385 | 219 ft | 0 kts | 314° |
| 2026-05-05 19:23 | 44.89815 | 13.92397 | 222 ft | 5 kts | 314° |
| 2026-05-05 19:23 | 44.89802 | 13.92450 | 220 ft | 7 kts | 226° |
| 2026-05-05 19:23 | 44.89801 | 13.92453 | 220 ft | 0 kts | 196° |
| 2026-05-05 19:26 | 44.89772 | 13.92451 | 219 ft | 11 kts | 178° |
| 2026-05-05 19:26 | 44.89652 | 13.92458 | 219 ft | 20 kts | 177° |
| 2026-05-05 19:26 | 44.89577 | 13.92404 | 218 ft | 8 kts | 274° |
| 2026-05-05 19:26 | 44.89577 | 13.92296 | 218 ft | 15 kts | 267° |
| 2026-05-05 19:27 | 44.89570 | 13.92095 | 218 ft | 26 kts | 266° |
| 2026-05-05 19:27 | 44.89568 | 13.91788 | 209 ft | 37 kts | 268° |
| 2026-05-05 19:27 | 44.89556 | 13.91421 | 198 ft | 23 kts | 269° |
| 2026-05-05 19:27 | 44.89549 | 13.91161 | 191 ft | 29 kts | 269° |
| 2026-05-05 19:28 | 44.89547 | 13.90862 | 196 ft | 33 kts | 268° |
| 2026-05-05 19:28 | 44.89498 | 13.90552 | 180 ft | 34 kts | 229° |
| 2026-05-05 19:28 | 44.89332 | 13.90373 | 178 ft | 11 kts | 170° |
| 2026-05-05 19:28 | 44.89319 | 13.90401 | 178 ft | 4 kts | 106° |
| 2026-05-05 19:29 | 44.89318 | 13.90412 | 178 ft | 0 kts | 95° |
| 2026-05-05 19:30 | 44.89318 | 13.90421 | 178 ft | 12 kts | 95° |
| 2026-05-05 19:30 | 44.89340 | 13.90916 | 186 ft | 86 kts | 92° |
| 2026-05-05 19:30 | 44.89359 | 13.92033 | 280 ft | 131 kts | 89° |
| 2026-05-05 19:30 | 44.89364 | 13.93337 | 731 ft | 140 kts | 91° |
| 2026-05-05 19:31 | 44.89414 | 13.94815 | 1065 ft | 161 kts | 89° |
| 2026-05-05 19:31 | 44.89553 | 13.96457 | 1471 ft | 179 kts | 89° |
| 2026-05-05 19:31 | 44.89644 | 13.98279 | 1930 ft | 195 kts | 96° |
| 2026-05-05 19:31 | 44.89626 | 14.00307 | 2385 ft | 219 kts | 96° |
| 2026-05-05 19:32 | 44.89702 | 14.02586 | 2954 ft | 246 kts | 79° |
| 2026-05-05 19:32 | 44.90384 | 14.04926 | 3627 ft | 271 kts | 65° |
| 2026-05-05 19:32 | 44.91265 | 14.07349 | 4447 ft | 282 kts | 63° |
| 2026-05-05 19:32 | 44.91823 | 14.08834 | 4723 ft | 284 kts | 62° |
| 2026-05-05 19:33 | 44.92653 | 14.11035 | 4918 ft | 285 kts | 62° |
| 2026-05-05 19:33 | 44.93576 | 14.13517 | 4998 ft | 285 kts | 62° |
| 2026-05-05 19:33 | 44.94492 | 14.16012 | 5020 ft | 288 kts | 63° |
| 2026-05-05 19:33 | 44.95409 | 14.18541 | 5457 ft | 291 kts | 63° |
| 2026-05-05 19:34 | 44.96328 | 14.21092 | 6571 ft | 290 kts | 62° |
| 2026-05-05 19:34 | 44.97249 | 14.23658 | 7650 ft | 296 kts | 62° |
| 2026-05-05 19:34 | 44.98178 | 14.26244 | 8688 ft | 301 kts | 62° |
| 2026-05-05 19:35 | 45.00120 | 14.31651 | 10583 ft | 321 kts | 62° |
| 2026-05-05 19:35 | 45.01171 | 14.34578 | 11016 ft | 346 kts | 62° |
| 2026-05-05 19:35 | 45.02294 | 14.37714 | 11586 ft | 365 kts | 62° |
| 2026-05-05 19:35 | 45.03443 | 14.40929 | 12493 ft | 370 kts | 62° |
| 2026-05-05 19:36 | 45.04613 | 14.44209 | 13439 ft | 375 kts | 62° |
| 2026-05-05 19:36 | 45.05794 | 14.47522 | 14319 ft | 380 kts | 62° |
| 2026-05-05 19:36 | 45.06995 | 14.50894 | 15172 ft | 384 kts | 62° |
| 2026-05-05 19:36 | 45.08206 | 14.54297 | 16000 ft | 389 kts | 62° |
| 2026-05-05 19:37 | 45.09415 | 14.57699 | 16831 ft | 393 kts | 62° |
| 2026-05-05 19:37 | 45.10647 | 14.61169 | 17669 ft | 397 kts | 62° |
| 2026-05-05 19:37 | 45.11895 | 14.64688 | 18465 ft | 401 kts | 62° |
| 2026-05-05 19:37 | 45.13155 | 14.68244 | 18853 ft | 404 kts | 62° |
| 2026-05-05 19:38 | 45.14413 | 14.71801 | 19001 ft | 404 kts | 62° |
| 2026-05-05 19:38 | 45.15673 | 14.75368 | 19043 ft | 404 kts | 62° |
| 2026-05-05 19:38 | 45.16913 | 14.78884 | 19040 ft | 403 kts | 62° |
| 2026-05-05 19:38 | 45.18167 | 14.82445 | 19040 ft | 403 kts | 62° |
| 2026-05-05 19:39 | 45.19415 | 14.85991 | 19040 ft | 402 kts | 62° |
| 2026-05-05 19:39 | 45.20664 | 14.89545 | 19037 ft | 402 kts | 62° |
| 2026-05-05 19:39 | 45.21908 | 14.93092 | 19031 ft | 402 kts | 62° |
| 2026-05-05 19:39 | 45.23158 | 14.96659 | 19028 ft | 402 kts | 62° |
| 2026-05-05 19:40 | 45.24405 | 15.00222 | 19026 ft | 402 kts | 62° |
| 2026-05-05 19:40 | 45.25650 | 15.03787 | 19021 ft | 403 kts | 63° |
| 2026-05-05 19:40 | 45.26876 | 15.07298 | 19015 ft | 403 kts | 63° |
| 2026-05-05 19:40 | 45.28120 | 15.10868 | 19008 ft | 403 kts | 63° |
| 2026-05-05 19:41 | 45.29364 | 15.14443 | 19004 ft | 403 kts | 62° |
| 2026-05-05 19:41 | 45.30605 | 15.18013 | 19006 ft | 404 kts | 63° |
| 2026-05-05 19:41 | 45.31854 | 15.21610 | 19004 ft | 404 kts | 63° |
| 2026-05-05 19:41 | 45.33096 | 15.25194 | 18997 ft | 404 kts | 63° |
| 2026-05-05 19:42 | 45.34335 | 15.28776 | 18999 ft | 404 kts | 63° |
| 2026-05-05 19:42 | 45.35559 | 15.32317 | 18996 ft | 404 kts | 63° |
| 2026-05-05 19:42 | 45.36800 | 15.35914 | 18996 ft | 405 kts | 63° |
| 2026-05-05 19:42 | 45.38035 | 15.39497 | 18991 ft | 404 kts | 63° |
| 2026-05-05 19:43 | 45.39276 | 15.43100 | 18987 ft | 405 kts | 63° |
| 2026-05-05 19:43 | 45.40511 | 15.46692 | 18987 ft | 404 kts | 63° |
| 2026-05-05 19:43 | 45.41747 | 15.50291 | 18983 ft | 405 kts | 63° |
| 2026-05-05 19:43 | 45.43022 | 15.53866 | 18977 ft | 403 kts | 57° |
| 2026-05-05 19:44 | 45.44739 | 15.56974 | 18776 ft | 398 kts | 42° |
| 2026-05-05 19:44 | 45.46930 | 15.59329 | 18340 ft | 392 kts | 27° |
| 2026-05-05 19:44 | 45.49339 | 15.61113 | 17747 ft | 389 kts | 25° |
| 2026-05-05 19:44 | 45.51736 | 15.62867 | 17143 ft | 385 kts | 25° |
| 2026-05-05 19:45 | 45.54005 | 15.64534 | 16283 ft | 390 kts | 25° |
| 2026-05-05 19:45 | 45.56447 | 15.66335 | 15198 ft | 399 kts | 25° |
| 2026-05-05 19:45 | 45.58904 | 15.68155 | 14081 ft | 408 kts | 25° |
| 2026-05-05 19:45 | 45.61388 | 15.70179 | 12764 ft | 419 kts | 32° |
| 2026-05-05 19:46 | 45.63712 | 15.72780 | 11790 ft | 421 kts | 40° |
| 2026-05-05 19:46 | 45.65750 | 15.75741 | 10952 ft | 417 kts | 45° |
| 2026-05-05 19:46 | 45.67734 | 15.78749 | 10161 ft | 413 kts | 45° |
| 2026-05-05 19:46 | 45.69703 | 15.81713 | 9319 ft | 408 kts | 45° |
| 2026-05-05 19:47 | 45.71649 | 15.84642 | 8517 ft | 404 kts | 45° |
| 2026-05-05 19:47 | 45.73554 | 15.87519 | 8145 ft | 390 kts | 45° |
| 2026-05-05 19:47 | 45.75355 | 15.90247 | 8023 ft | 370 kts | 45° |
| 2026-05-05 19:47 | 45.77096 | 15.92889 | 7995 ft | 348 kts | 45° |
| 2026-05-05 19:48 | 45.78689 | 15.95309 | 7959 ft | 330 kts | 45° |
| 2026-05-05 19:48 | 45.80231 | 15.97652 | 7816 ft | 316 kts | 45° |
| 2026-05-05 19:48 | 45.81712 | 15.99903 | 7649 ft | 305 kts | 44° |
| 2026-05-05 19:48 | 45.83157 | 16.02099 | 7273 ft | 302 kts | 44° |
| 2026-05-05 19:49 | 45.84599 | 16.04291 | 6860 ft | 301 kts | 44° |
| 2026-05-05 19:49 | 45.85550 | 16.05738 | 6613 ft | 300 kts | 44° |
| 2026-05-05 19:49 | 45.87454 | 16.08640 | 6144 ft | 296 kts | 44° |
| 2026-05-05 19:49 | 45.88862 | 16.10787 | 6016 ft | 298 kts | 44° |
| 2026-05-05 19:50 | 45.89807 | 16.12227 | 5991 ft | 298 kts | 44° |
| 2026-05-05 19:50 | 45.91228 | 16.14400 | 5986 ft | 295 kts | 44° |
| 2026-05-05 19:50 | 45.93033 | 16.17167 | 5975 ft | 276 kts | 44° |
| 2026-05-05 19:50 | 45.94333 | 16.19159 | 5979 ft | 278 kts | 44° |
| 2026-05-05 19:51 | 45.95229 | 16.20528 | 5975 ft | 278 kts | 44° |
| 2026-05-05 19:51 | 45.96534 | 16.22526 | 5966 ft | 277 kts | 44° |
| 2026-05-05 19:51 | 45.97853 | 16.24547 | 5966 ft | 276 kts | 44° |
| 2026-05-05 19:51 | 45.99173 | 16.26572 | 5962 ft | 278 kts | 44° |
| 2026-05-05 19:52 | 46.00458 | 16.28649 | 5954 ft | 279 kts | 54° |
| 2026-05-05 19:52 | 46.01177 | 16.31210 | 5868 ft | 276 kts | 83° |
| 2026-05-05 19:52 | 46.01045 | 16.33911 | 5544 ft | 270 kts | 112° |
| 2026-05-05 19:52 | 46.00091 | 16.36145 | 5201 ft | 258 kts | 142° |
| 2026-05-05 19:53 | 45.98676 | 16.37668 | 4890 ft | 250 kts | 159° |
| 2026-05-05 19:53 | 45.97057 | 16.38316 | 4582 ft | 237 kts | 182° |
| 2026-05-05 19:53 | 45.95456 | 16.38077 | 4283 ft | 228 kts | 202° |
| 2026-05-05 19:53 | 45.94101 | 16.37062 | 4030 ft | 219 kts | 223° |
| 2026-05-05 19:54 | 45.93065 | 16.35499 | 3966 ft | 219 kts | 230° |
| 2026-05-05 19:54 | 45.92027 | 16.33893 | 3968 ft | 218 kts | 229° |
| 2026-05-05 19:54 | 45.90981 | 16.32305 | 3976 ft | 219 kts | 229° |
| 2026-05-05 19:54 | 45.89926 | 16.30704 | 3974 ft | 221 kts | 229° |
| 2026-05-05 19:55 | 45.88869 | 16.29120 | 3976 ft | 219 kts | 229° |
| 2026-05-05 19:55 | 45.87818 | 16.27526 | 3981 ft | 219 kts | 229° |
| 2026-05-05 19:55 | 45.86781 | 16.25923 | 3992 ft | 222 kts | 230° |
| 2026-05-05 19:55 | 45.85743 | 16.24319 | 3989 ft | 221 kts | 227° |
| 2026-05-05 19:56 | 45.84644 | 16.22785 | 3991 ft | 219 kts | 226° |
| 2026-05-05 19:56 | 45.83555 | 16.21264 | 3982 ft | 219 kts | 228° |
| 2026-05-05 19:56 | 45.82516 | 16.19657 | 3797 ft | 219 kts | 230° |
| 2026-05-05 19:56 | 45.81497 | 16.18030 | 3538 ft | 212 kts | 230° |
| 2026-05-05 19:57 | 45.80608 | 16.16628 | 3395 ft | 170 kts | 230° |
| 2026-05-05 19:57 | 45.79880 | 16.15485 | 3217 ft | 142 kts | 230° |
| 2026-05-05 19:57 | 45.79257 | 16.14510 | 3061 ft | 124 kts | 230° |
| 2026-05-05 19:57 | 45.78671 | 16.13766 | 3136 ft | 95 kts | 206° |
| 2026-05-05 19:58 | 45.77960 | 16.14093 | 3351 ft | 138 kts | 142° |
| 2026-05-05 19:58 | 45.77263 | 16.15123 | 3880 ft | 171 kts | 136° |
| 2026-05-05 19:58 | 45.76807 | 16.16875 | 3946 ft | 186 kts | 105° |
| 2026-05-05 19:58 | 45.76767 | 16.18486 | 4203 ft | 147 kts | 92° |
| 2026-05-05 19:59 | 45.76432 | 16.19830 | 3992 ft | 145 kts | 144° |
| 2026-05-05 19:59 | 45.75848 | 16.21118 | 4106 ft | 173 kts | 112° |
| 2026-05-05 19:59 | 45.75561 | 16.22834 | 4681 ft | 176 kts | 109° |
| 2026-05-05 19:59 | 45.75277 | 16.24550 | 4872 ft | 182 kts | 109° |
| 2026-05-05 20:00 | 45.74983 | 16.26301 | 4841 ft | 178 kts | 107° |
| 2026-05-05 20:00 | 45.75044 | 16.28059 | 4614 ft | 177 kts | 76° |
| 2026-05-05 20:00 | 45.75376 | 16.29767 | 4232 ft | 179 kts | 75° |
| 2026-05-05 20:00 | 45.75724 | 16.31490 | 3866 ft | 180 kts | 75° |
| 2026-05-05 20:01 | 45.76077 | 16.33196 | 3530 ft | 178 kts | 75° |
| 2026-05-05 20:01 | 45.76431 | 16.34869 | 3187 ft | 177 kts | 72° |
| 2026-05-05 20:01 | 45.77157 | 16.36200 | 2997 ft | 171 kts | 24° |
| 2026-05-05 20:01 | 45.78275 | 16.36421 | 2982 ft | 156 kts | 334° |
| 2026-05-05 20:02 | 45.79028 | 16.35547 | 2983 ft | 134 kts | 288° |
| 2026-05-05 20:02 | 45.79527 | 16.34397 | 2993 ft | 137 kts | 295° |
| 2026-05-05 20:02 | 45.80034 | 16.33247 | 2986 ft | 137 kts | 292° |
| 2026-05-05 20:02 | 45.80526 | 16.32075 | 2986 ft | 137 kts | 292° |
| 2026-05-05 20:03 | 45.81008 | 16.30913 | 2988 ft | 136 kts | 292° |
| 2026-05-05 20:03 | 45.81503 | 16.29751 | 3057 ft | 136 kts | 293° |
| 2026-05-05 20:03 | 45.81988 | 16.28590 | 3224 ft | 135 kts | 291° |
| 2026-05-05 20:03 | 45.82416 | 16.27440 | 3001 ft | 134 kts | 288° |
| 2026-05-05 20:04 | 45.82791 | 16.26198 | 2540 ft | 138 kts | 283° |
| 2026-05-05 20:04 | 45.83004 | 16.24901 | 2281 ft | 121 kts | 251° |
| 2026-05-05 20:04 | 45.82743 | 16.23814 | 2164 ft | 121 kts | 249° |
| 2026-05-05 20:04 | 45.82476 | 16.22673 | 1944 ft | 115 kts | 250° |
| 2026-05-05 20:05 | 45.82244 | 16.21526 | 1872 ft | 122 kts | 253° |
| 2026-05-05 20:05 | 45.82047 | 16.20344 | 1778 ft | 121 kts | 254° |
| 2026-05-05 20:05 | 45.81817 | 16.19195 | 1791 ft | 120 kts | 247° |
| 2026-05-05 20:05 | 45.81481 | 16.18094 | 1735 ft | 118 kts | 239° |
| 2026-05-05 20:06 | 45.80997 | 16.17170 | 1852 ft | 118 kts | 231° |
| 2026-05-05 20:06 | 45.80451 | 16.16300 | 1901 ft | 118 kts | 228° |
| 2026-05-05 20:06 | 45.79882 | 16.15402 | 1602 ft | 124 kts | 227° |
| 2026-05-05 20:06 | 45.79328 | 16.14551 | 1559 ft | 104 kts | 230° |
| 2026-05-05 20:07 | 45.78794 | 16.13701 | 1536 ft | 123 kts | 227° |
| 2026-05-05 20:07 | 45.78184 | 16.12806 | 1230 ft | 128 kts | 227° |
| 2026-05-05 20:07 | 45.77592 | 16.11894 | 1126 ft | 125 kts | 227° |
| 2026-05-05 20:07 | 45.76988 | 16.10958 | 983 ft | 133 kts | 226° |
| 2026-05-05 20:08 | 45.76360 | 16.09993 | 803 ft | 124 kts | 225° |
| 2026-05-05 20:08 | 45.75750 | 16.09082 | 573 ft | 133 kts | 226° |
| 2026-05-05 20:08 | 45.75132 | 16.08140 | 389 ft | 127 kts | 225° |
| 2026-05-05 20:08 | 45.74541 | 16.07254 | 386 ft | 127 kts | 225° |
| 2026-05-05 20:09 | 45.73871 | 16.06236 | 979 ft | 138 kts | 225° |
| 2026-05-05 20:09 | 45.73256 | 16.05232 | 1891 ft | 123 kts | 245° |
| 2026-05-05 20:09 | 45.73538 | 16.04229 | 2951 ft | 126 kts | 309° |
| 2026-05-05 20:09 | 45.74400 | 16.03460 | 3306 ft | 161 kts | 322° |
| 2026-05-05 20:10 | 45.75449 | 16.02733 | 3634 ft | 172 kts | 322° |
| 2026-05-05 20:10 | 45.76224 | 16.01505 | 3637 ft | 164 kts | 293° |
| 2026-05-05 20:10 | 45.77068 | 16.00360 | 3340 ft | 179 kts | 324° |
| 2026-05-05 20:10 | 45.78234 | 15.99620 | 3249 ft | 189 kts | 329° |
| 2026-05-05 20:11 | 45.79578 | 15.99171 | 3428 ft | 212 kts | 342° |
| 2026-05-05 20:11 | 45.81189 | 15.98937 | 3788 ft | 256 kts | 359° |
| 2026-05-05 20:11 | 45.82995 | 15.99732 | 3970 ft | 284 kts | 26° |
| 2026-05-05 20:11 | 45.84502 | 16.01541 | 3996 ft | 290 kts | 48° |
| 2026-05-05 20:12 | 45.85750 | 16.03816 | 3996 ft | 291 kts | 50° |
| 2026-05-05 20:12 | 45.86998 | 16.06103 | 4000 ft | 290 kts | 50° |
| 2026-05-05 20:12 | 45.88252 | 16.08388 | 4001 ft | 292 kts | 50° |
| 2026-05-05 20:12 | 45.89507 | 16.10665 | 4002 ft | 291 kts | 50° |
| 2026-05-05 20:13 | 45.90745 | 16.12946 | 3987 ft | 289 kts | 50° |
| 2026-05-05 20:13 | 45.91987 | 16.15233 | 3985 ft | 290 kts | 50° |
| 2026-05-05 20:13 | 45.93245 | 16.17527 | 3985 ft | 292 kts | 50° |
| 2026-05-05 20:13 | 45.94500 | 16.19834 | 3975 ft | 293 kts | 50° |
| 2026-05-05 20:14 | 45.95753 | 16.22124 | 3974 ft | 291 kts | 50° |
| 2026-05-05 20:14 | 45.97015 | 16.24416 | 3969 ft | 293 kts | 50° |
| 2026-05-05 20:14 | 45.97993 | 16.26952 | 3969 ft | 295 kts | 73° |
| 2026-05-05 20:14 | 45.98181 | 16.29833 | 3816 ft | 288 kts | 101° |
| 2026-05-05 20:15 | 45.97700 | 16.32579 | 3626 ft | 277 kts | 112° |
| 2026-05-05 20:15 | 45.96799 | 16.34872 | 3526 ft | 254 kts | 141° |
| 2026-05-05 20:15 | 45.95389 | 16.36113 | 3471 ft | 226 kts | 173° |
| 2026-05-05 20:15 | 45.93944 | 16.36080 | 3471 ft | 195 kts | 204° |
| 2026-05-05 20:16 | 45.92812 | 16.35233 | 3476 ft | 173 kts | 221° |
| 2026-05-05 20:16 | 45.91993 | 16.34129 | 3485 ft | 158 kts | 232° |
| 2026-05-05 20:16 | 45.91326 | 16.32922 | 3473 ft | 146 kts | 233° |
| 2026-05-05 20:16 | 45.90696 | 16.31899 | 3480 ft | 132 kts | 232° |
| 2026-05-05 20:17 | 45.90081 | 16.30924 | 3478 ft | 131 kts | 231° |
| 2026-05-05 20:17 | 45.89460 | 16.29975 | 3482 ft | 131 kts | 230° |
| 2026-05-05 20:17 | 45.88845 | 16.29040 | 3478 ft | 124 kts | 230° |
| 2026-05-05 20:17 | 45.88260 | 16.28151 | 3486 ft | 122 kts | 230° |
| 2026-05-05 20:18 | 45.87676 | 16.27260 | 3485 ft | 123 kts | 231° |
| 2026-05-05 20:18 | 45.87098 | 16.26383 | 3428 ft | 118 kts | 230° |
| 2026-05-05 20:18 | 45.86532 | 16.25521 | 3367 ft | 120 kts | 231° |
| 2026-05-05 20:18 | 45.85961 | 16.24651 | 3315 ft | 118 kts | 231° |
| 2026-05-05 20:19 | 45.85394 | 16.23789 | 3227 ft | 119 kts | 230° |
| 2026-05-05 20:19 | 45.84828 | 16.22927 | 3097 ft | 118 kts | 230° |
| 2026-05-05 20:19 | 45.84261 | 16.22065 | 2965 ft | 119 kts | 230° |
| 2026-05-05 20:19 | 45.83708 | 16.21222 | 2827 ft | 116 kts | 230° |
| 2026-05-05 20:20 | 45.83160 | 16.20389 | 2679 ft | 113 kts | 229° |
| 2026-05-05 20:20 | 45.82613 | 16.19554 | 2535 ft | 118 kts | 230° |
| 2026-05-05 20:20 | 45.82054 | 16.18704 | 2378 ft | 115 kts | 229° |
| 2026-05-05 20:20 | 45.81511 | 16.17877 | 2226 ft | 114 kts | 229° |
| 2026-05-05 20:21 | 45.80956 | 16.17031 | 2076 ft | 117 kts | 229° |
| 2026-05-05 20:21 | 45.80409 | 16.16198 | 1925 ft | 115 kts | 229° |
| 2026-05-05 20:21 | 45.79853 | 16.15351 | 1774 ft | 117 kts | 229° |
| 2026-05-05 20:21 | 45.79294 | 16.14499 | 1603 ft | 118 kts | 228° |
| 2026-05-05 20:22 | 45.78717 | 16.13619 | 1455 ft | 124 kts | 229° |
| 2026-05-05 20:22 | 45.78123 | 16.12714 | 1260 ft | 127 kts | 227° |
| 2026-05-05 20:22 | 45.77522 | 16.11797 | 1073 ft | 123 kts | 227° |
| 2026-05-05 20:22 | 45.76925 | 16.10888 | 897 ft | 127 kts | 227° |
| 2026-05-05 20:23 | 45.76319 | 16.09964 | 723 ft | 125 kts | 226° |
| 2026-05-05 20:23 | 45.75740 | 16.09080 | 560 ft | 120 kts | 225° |
| 2026-05-05 20:23 | 45.75167 | 16.08197 | 393 ft | 124 kts | 226° |
| 2026-05-05 20:23 | 45.74598 | 16.07344 | 357 ft | 101 kts | 225° |
| 2026-05-05 20:24 | 45.74204 | 16.06749 | 364 ft | 67 kts | 226° |
| 2026-05-05 20:24 | 45.73952 | 16.06368 | 361 ft | 17 kts | 226° |
| 2026-05-05 20:24 | 45.73866 | 16.06266 | 361 ft | 17 kts | 182° |
| 2026-05-05 20:24 | 45.73752 | 16.06381 | 359 ft | 25 kts | 134° |
| 2026-05-05 20:25 | 45.73648 | 16.06483 | 359 ft | 8 kts | 206° |
| 2026-05-05 20:25 | 45.73560 | 16.06401 | 362 ft | 0 kts | 186° |